createdAt,value
2019-04-14T00:00:03.359Z,55.95
2019-04-14T00:02:40.530Z,53.95
2019-04-14T00:05:08.432Z,55.08
2019-04-14T00:07:34.548Z,54.88
2019-04-14T00:10:00.784Z,54.27
2019-04-14T00:12:27.333Z,48.75
2019-04-14T00:14:53.452Z,64.00
2019-04-14T00:17:19.600Z,55.33
2019-04-14T00:19:45.733Z,53.95
2019-04-14T00:22:11.803Z,55.52
2019-04-14T00:24:38.117Z,59.33
2019-04-14T00:27:04.262Z,57.00
2019-04-14T00:29:30.637Z,67.50
2019-04-14T00:31:57.009Z,60.12
2019-04-14T00:34:35.224Z,59.67
2019-04-14T00:37:03.439Z,57.67
2019-04-14T00:39:31.596Z,56.63
2019-04-14T00:42:02.102Z,53.40
2019-04-14T00:44:47.399Z,67.20
2019-04-14T00:47:15.787Z,60.98
2019-04-14T00:49:41.983Z,52.88
2019-04-14T00:52:07.965Z,62.53
2019-04-14T00:54:34.623Z,72.55
2019-04-14T00:57:00.905Z,54.73
2019-04-14T00:59:27.036Z,52.98
2019-04-14T01:01:52.834Z,83.78
2019-04-14T01:04:18.757Z,54.83
2019-04-14T01:06:44.934Z,64.13
2019-04-14T01:09:13.070Z,54.70
2019-04-14T01:11:39.990Z,52.88
2019-04-14T01:14:06.113Z,52.08
2019-04-14T01:16:32.208Z,53.08
2019-04-14T01:18:58.285Z,65.70
2019-04-14T01:21:24.402Z,55.90
2019-04-14T01:23:50.242Z,60.85
2019-04-14T01:26:16.063Z,68.30
2019-04-14T01:28:41.947Z,59.30
2019-04-14T01:31:08.095Z,103.73
2019-04-14T01:33:33.907Z,56.60
2019-04-14T01:36:00.009Z,58.47
2019-04-14T01:38:26.096Z,63.00
2019-04-14T01:40:53.058Z,60.73
2019-04-14T01:43:18.996Z,97.80
2019-04-14T01:45:58.108Z,61.17
2019-04-14T01:48:12.808Z,62.15
2019-04-14T01:50:40.949Z,57.83
2019-04-14T01:53:09.675Z,66.90
2019-04-14T01:55:44.089Z,58.08
2019-04-14T01:58:14.669Z,58.17
2019-04-14T02:00:46.577Z,58.13
2019-04-14T02:03:12.828Z,56.55
2019-04-14T02:05:38.653Z,61.90
2019-04-14T02:08:04.563Z,52.53
2019-04-14T02:10:30.543Z,58.07
2019-04-14T02:12:56.589Z,54.48
2019-04-14T02:15:22.438Z,48.28
2019-04-14T02:17:48.495Z,51.43
2019-04-14T02:20:14.295Z,52.23
2019-04-14T02:22:40.092Z,61.93
2019-04-14T02:25:05.934Z,69.40
2019-04-14T02:27:32.020Z,58.93
2019-04-14T02:29:58.234Z,77.72
2019-04-14T02:32:49.418Z,63.15
2019-04-14T02:40:21.781Z,94.32
2019-04-14T02:42:42.038Z,82.45
2019-04-14T02:45:12.322Z,106.55
2019-04-14T02:50:05.364Z,59.08
2019-04-14T02:54:59.496Z,59.67
2019-04-14T02:57:30.261Z,58.38
2019-04-14T03:00:03.468Z,57.95
2019-04-14T03:04:50.638Z,58.42
2019-04-14T03:07:21.945Z,46.28
2019-04-14T03:12:16.435Z,55.70
2019-04-14T03:14:49.318Z,55.88
2019-04-14T03:17:24.795Z,54.08
2019-04-14T03:22:28.885Z,45.50
2019-04-14T03:25:00.483Z,56.10
2019-04-14T03:27:55.103Z,50.50
2019-04-14T03:30:33.605Z,56.20
2019-04-14T03:33:05.291Z,54.58
2019-04-14T03:35:35.775Z,51.73
2019-04-14T03:37:45.284Z,59.65
2019-04-14T03:40:15.949Z,49.30
2019-04-14T03:45:22.249Z,60.90
2019-04-14T03:47:25.757Z,50.70
2019-04-14T03:50:00.330Z,54.88
2019-04-14T03:52:34.964Z,53.25
2019-04-14T03:54:44.132Z,57.35
2019-04-14T03:56:55.805Z,60.08
2019-04-14T03:59:22.047Z,62.33
2019-04-14T04:01:49.943Z,53.48
2019-04-14T04:04:16.190Z,58.08
2019-04-14T04:06:42.312Z,51.45
2019-04-14T04:09:08.411Z,53.92
2019-04-14T04:11:34.526Z,60.75
2019-04-14T04:14:00.675Z,51.37
2019-04-14T04:16:29.052Z,56.37
2019-04-14T04:19:05.417Z,66.85
2019-04-14T04:21:44.369Z,58.50
2019-04-14T04:24:12.889Z,56.33
2019-04-14T04:26:43.514Z,57.95
2019-04-14T04:29:11.305Z,53.73
2019-04-14T04:31:52.539Z,52.10
2019-04-14T04:34:38.409Z,56.25
2019-04-14T04:37:14.991Z,48.95
2019-04-14T04:39:56.042Z,63.65
2019-04-14T04:42:22.245Z,61.53
2019-04-14T04:44:48.800Z,60.92
2019-04-14T04:47:14.944Z,59.83
2019-04-14T04:49:40.742Z,63.42
2019-04-14T04:52:06.563Z,56.17
2019-04-14T04:54:32.639Z,51.20
2019-04-14T04:56:58.449Z,61.48
2019-04-14T04:59:25.498Z,53.07
2019-04-14T05:01:51.656Z,58.05
2019-04-14T05:04:17.710Z,59.00
2019-04-14T05:06:50.614Z,61.23
2019-04-14T05:09:36.851Z,57.55
2019-04-14T05:12:24.269Z,57.80
2019-04-14T05:15:01.463Z,59.48
2019-04-14T05:17:29.867Z,59.73
2019-04-14T05:19:56.238Z,58.08
2019-04-14T05:22:22.394Z,58.02
2019-04-14T05:24:48.590Z,67.22
2019-04-14T05:27:14.627Z,60.75
2019-04-14T05:29:40.846Z,56.15
2019-04-14T05:32:06.702Z,58.58
2019-04-14T05:34:32.766Z,60.00
2019-04-14T05:36:58.574Z,61.95
2019-04-14T05:39:24.621Z,58.47
2019-04-14T05:42:00.518Z,65.08
2019-04-14T05:44:18.636Z,51.37
2019-04-14T05:46:44.729Z,59.60
2019-04-14T05:49:10.949Z,60.50
2019-04-14T05:51:39.135Z,64.92
2019-04-14T05:54:05.677Z,60.90
2019-04-14T05:56:32.570Z,55.73
2019-04-14T05:59:00.123Z,55.23
2019-04-14T06:01:26.972Z,55.38
2019-04-14T06:03:53.930Z,58.98
2019-04-14T06:06:19.811Z,66.53
2019-04-14T06:08:45.628Z,55.63
2019-04-14T06:11:11.442Z,63.23
2019-04-14T06:13:37.544Z,64.93
2019-04-14T06:16:03.343Z,53.83
2019-04-14T06:18:29.430Z,54.40
2019-04-14T06:20:55.247Z,58.28
2019-04-14T06:23:21.098Z,52.80
2019-04-14T06:25:47.153Z,60.23
2019-04-14T06:28:12.951Z,50.83
2019-04-14T06:30:56.057Z,52.73
2019-04-14T06:33:38.698Z,56.05
2019-04-14T06:36:06.699Z,56.80
2019-04-14T06:38:34.678Z,56.20
2019-04-14T06:41:02.393Z,62.25
2019-04-14T06:43:28.277Z,60.85
2019-04-14T06:45:54.181Z,59.87
2019-04-14T06:48:20.021Z,60.87
2019-04-14T06:50:46.631Z,59.30
2019-04-14T06:53:12.466Z,53.98
2019-04-14T06:55:38.319Z,59.40
2019-04-14T06:58:04.158Z,60.53
2019-04-14T07:00:30.279Z,56.10
2019-04-14T07:02:56.432Z,51.15
2019-04-14T07:05:22.237Z,54.55
2019-04-14T07:07:56.982Z,51.17
2019-04-14T07:10:15.757Z,58.58
2019-04-14T07:12:43.163Z,55.13
2019-04-14T07:15:09.708Z,60.95
2019-04-14T07:17:35.515Z,52.53
2019-04-14T07:20:02.672Z,55.83
2019-04-14T07:22:28.550Z,62.15
2019-04-14T07:24:54.594Z,58.03
2019-04-14T07:27:20.732Z,51.65
2019-04-14T07:29:51.253Z,49.35
2019-04-14T07:32:34.165Z,52.65
2019-04-14T07:35:04.415Z,57.08
2019-04-14T07:37:32.153Z,55.73
2019-04-14T07:40:03.170Z,52.93
2019-04-14T07:42:37.285Z,56.40
2019-04-14T07:45:22.705Z,55.30
2019-04-14T07:47:59.357Z,60.08
2019-04-14T07:50:29.847Z,56.92
2019-04-14T07:53:06.735Z,63.90
2019-04-14T07:55:37.097Z,53.65
2019-04-14T07:58:19.783Z,60.05
2019-04-14T08:00:47.499Z,54.15
2019-04-14T08:03:24.513Z,61.75
2019-04-14T08:05:50.340Z,55.15
2019-04-14T08:08:16.133Z,55.87
2019-04-14T08:10:41.919Z,49.10
2019-04-14T08:13:08.017Z,58.77
2019-04-14T08:15:33.829Z,52.03
2019-04-14T08:17:59.926Z,60.03
2019-04-14T08:20:27.772Z,57.23
2019-04-14T08:22:53.494Z,56.75
2019-04-14T08:25:19.321Z,64.90
2019-04-14T08:27:45.125Z,61.53
2019-04-14T08:30:11.055Z,58.97
2019-04-14T08:32:37.150Z,55.27
2019-04-14T08:35:04.924Z,61.23
2019-04-14T08:37:30.750Z,53.42
2019-04-14T08:40:33.583Z,52.63
2019-04-14T08:43:01.564Z,55.78
2019-04-14T08:45:41.350Z,61.05
2019-04-14T08:48:18.126Z,57.75
2019-04-14T08:50:46.137Z,54.38
2019-04-14T08:53:14.082Z,56.98
2019-04-14T08:55:41.830Z,51.90
2019-04-14T08:58:22.181Z,53.52
2019-04-14T09:00:49.874Z,51.73
2019-04-14T09:03:32.640Z,59.27
2019-04-14T09:06:00.656Z,57.78
2019-04-14T09:08:34.218Z,47.38
2019-04-14T09:11:05.168Z,48.52
2019-04-14T09:13:31.238Z,60.33
2019-04-14T09:15:57.272Z,57.65
2019-04-14T09:18:23.084Z,58.13
2019-04-14T09:20:52.564Z,57.33
2019-04-14T09:23:20.280Z,55.60
2019-04-14T09:25:46.455Z,59.27
2019-04-14T09:28:12.534Z,54.45
2019-04-14T09:30:38.331Z,57.08
2019-04-14T09:33:04.137Z,53.13
2019-04-14T09:35:30.227Z,51.93
2019-04-14T09:37:56.029Z,47.67
2019-04-14T09:40:24.629Z,51.17
2019-04-14T09:42:50.442Z,52.03
2019-04-14T09:45:18.868Z,55.47
2019-04-14T09:47:44.943Z,50.50
2019-04-14T09:50:13.790Z,60.78
2019-04-14T09:52:39.579Z,54.50
2019-04-14T09:55:10.302Z,50.77
2019-04-14T09:57:36.380Z,49.38
2019-04-14T10:00:05.738Z,50.78
2019-04-14T10:02:31.540Z,50.83
2019-04-14T10:05:00.461Z,46.10
2019-04-14T10:07:26.294Z,50.43
2019-04-14T10:09:52.184Z,48.60
2019-04-14T10:12:18.065Z,49.77
2019-04-14T10:14:43.825Z,54.30
2019-04-14T10:17:09.884Z,49.20
2019-04-14T10:19:35.697Z,50.95
2019-04-14T10:22:04.791Z,53.43
2019-04-14T10:24:30.574Z,58.08
2019-04-14T10:26:59.536Z,51.40
2019-04-14T10:29:25.347Z,52.85
2019-04-14T10:31:56.151Z,55.93
2019-04-14T10:34:21.945Z,55.58
2019-04-14T10:36:51.128Z,56.57
2019-04-14T10:39:16.929Z,62.85
2019-04-14T10:41:45.490Z,50.83
2019-04-14T10:44:11.321Z,57.15
2019-04-14T10:46:37.182Z,48.20
2019-04-14T10:49:02.988Z,50.57
2019-04-14T10:51:30.340Z,49.53
2019-04-14T10:53:57.079Z,63.85
2019-04-14T10:56:23.172Z,53.30
2019-04-14T10:58:52.307Z,54.15
2019-04-14T11:01:18.100Z,49.70
2019-04-14T11:03:46.654Z,43.00
2019-04-14T11:06:14.639Z,42.93
2019-04-14T11:08:40.450Z,49.97
2019-04-14T11:11:06.497Z,52.30
2019-04-14T11:13:35.387Z,53.10
2019-04-14T11:16:01.482Z,51.75
2019-04-14T11:18:28.975Z,48.92
2019-04-14T11:20:54.779Z,48.70
2019-04-14T11:23:20.599Z,47.37
2019-04-14T11:25:46.409Z,46.63
2019-04-14T11:28:12.297Z,47.90
2019-04-14T11:30:41.216Z,46.60
2019-04-14T11:33:08.957Z,53.68
2019-04-14T11:35:36.670Z,56.83
2019-04-14T11:38:13.734Z,44.65
2019-04-14T11:40:41.433Z,50.23
2019-04-14T11:43:07.537Z,52.90
2019-04-14T11:45:33.471Z,48.10
2019-04-14T11:47:59.290Z,52.50
2019-04-14T11:50:25.101Z,51.27
2019-04-14T11:52:50.904Z,51.80
2019-04-14T11:55:17.025Z,42.20
2019-04-14T11:57:42.827Z,46.37
2019-04-14T12:00:11.016Z,47.33
2019-04-14T12:02:41.488Z,46.02
2019-04-14T12:05:12.583Z,45.93
2019-04-14T12:07:52.254Z,46.10
2019-04-14T12:10:18.468Z,44.50
2019-04-14T12:12:44.566Z,42.50
2019-04-14T12:15:16.159Z,47.70
2019-04-14T12:17:38.585Z,46.00
2019-04-14T12:20:05.369Z,61.03
2019-04-14T12:22:32.189Z,52.47
2019-04-14T12:24:58.105Z,44.87
2019-04-14T12:27:23.914Z,46.70
2019-04-14T12:29:50.114Z,53.43
2019-04-14T12:32:17.212Z,47.57
2019-04-14T12:34:43.194Z,46.18
2019-04-14T12:37:09.007Z,49.83
2019-04-14T12:39:34.797Z,45.00
2019-04-14T12:42:14.746Z,50.53
2019-04-14T12:44:48.520Z,53.73
2019-04-14T12:47:25.161Z,46.90
2019-04-14T12:49:55.923Z,51.47
2019-04-14T12:52:23.658Z,49.67
2019-04-14T12:54:49.486Z,45.58
2019-04-14T12:57:17.209Z,55.13
2019-04-14T12:59:42.999Z,43.17
2019-04-14T13:02:13.736Z,49.83
2019-04-14T13:04:39.546Z,49.53
2019-04-14T13:07:05.326Z,48.23
2019-04-14T13:09:31.402Z,37.67
2019-04-14T13:11:57.214Z,40.00
2019-04-14T13:14:23.042Z,43.27
2019-04-14T13:16:49.040Z,41.30
2019-04-14T13:19:14.853Z,46.63
2019-04-14T13:21:40.670Z,40.60
2019-04-14T13:24:06.905Z,47.80
2019-04-14T13:26:32.709Z,42.20
2019-04-14T13:28:58.782Z,35.50
2019-04-14T13:31:25.219Z,38.20
2019-04-14T13:33:51.128Z,33.10
2019-04-14T13:36:16.942Z,39.20
2019-04-14T13:38:42.987Z,31.50
2019-04-14T13:41:09.087Z,34.63
2019-04-14T13:43:34.867Z,37.40
2019-04-14T13:46:01.068Z,30.90
2019-04-14T13:48:27.166Z,28.40
2019-04-14T13:50:52.995Z,26.83
2019-04-14T13:53:19.069Z,31.67
2019-04-14T13:55:45.137Z,28.20
2019-04-14T13:58:11.220Z,25.60
2019-04-14T14:00:37.026Z,25.03
2019-04-14T14:03:02.922Z,31.33
2019-04-14T14:05:28.938Z,32.10
2019-04-14T14:07:54.751Z,29.03
2019-04-14T14:10:20.656Z,29.40
2019-04-14T14:12:51.399Z,28.27
2019-04-14T14:15:36.004Z,32.77
2019-04-14T14:18:22.347Z,33.50
2019-04-14T14:20:50.112Z,31.93
2019-04-14T14:23:27.902Z,25.27
2019-04-14T14:26:01.826Z,30.10
2019-04-14T14:28:27.622Z,31.27
2019-04-14T14:30:53.423Z,23.90
2019-04-14T14:33:19.244Z,33.57
2019-04-14T14:35:45.059Z,26.07
2019-04-14T14:38:10.883Z,30.80
2019-04-14T14:40:36.673Z,24.63
2019-04-14T14:43:05.599Z,27.13
2019-04-14T14:45:42.610Z,31.77
2019-04-14T14:48:13.327Z,29.83
2019-04-14T14:50:41.055Z,27.93
2019-04-14T14:53:12.306Z,34.47
2019-04-14T14:55:34.571Z,31.70
2019-04-14T14:58:00.669Z,26.70
2019-04-14T15:00:28.719Z,38.13
2019-04-14T15:02:54.550Z,27.03
2019-04-14T15:05:20.318Z,30.10
2019-04-14T15:07:46.103Z,30.03
2019-04-14T15:10:12.025Z,35.90
2019-04-14T15:12:38.103Z,27.40
2019-04-14T15:15:05.855Z,27.63
2019-04-14T15:17:31.907Z,28.37
2019-04-14T15:19:57.714Z,20.57
2019-04-14T15:22:23.533Z,24.13
2019-04-14T15:24:49.358Z,29.67
2019-04-14T15:27:15.284Z,32.00
2019-04-14T15:29:41.337Z,30.23
2019-04-14T15:32:07.435Z,22.23
2019-04-14T15:34:33.485Z,28.43
2019-04-14T15:36:59.291Z,25.80
2019-04-14T15:39:25.146Z,26.57
2019-04-14T15:41:54.314Z,29.33
2019-04-14T15:44:20.149Z,25.93
2019-04-14T15:46:46.266Z,25.40
2019-04-14T15:49:12.077Z,28.90
2019-04-14T15:51:43.041Z,34.93
2019-04-14T15:54:09.168Z,22.87
2019-04-14T15:56:45.681Z,25.60
2019-04-14T15:59:13.432Z,23.53
2019-04-14T16:01:50.781Z,28.83
2019-04-14T16:04:27.580Z,25.13
2019-04-14T16:06:55.262Z,25.10
2019-04-14T16:09:31.919Z,24.77
2019-04-14T16:11:59.685Z,26.40
2019-04-14T16:14:36.843Z,41.13
2019-04-14T16:17:15.859Z,29.40
2019-04-14T16:19:47.473Z,27.70
2019-04-14T16:22:13.585Z,25.83
2019-04-14T16:24:42.630Z,27.17
2019-04-14T16:27:10.363Z,28.00
2019-04-14T16:29:39.477Z,28.70
2019-04-14T16:32:19.395Z,27.20
2019-04-14T16:34:56.642Z,32.17
2019-04-14T16:37:22.739Z,27.90
2019-04-14T16:39:48.522Z,30.13
2019-04-14T16:42:14.606Z,33.93
2019-04-14T16:44:40.721Z,32.10
2019-04-14T16:47:06.506Z,28.97
2019-04-14T16:49:32.305Z,30.37
2019-04-14T16:52:00.006Z,28.60
2019-04-14T16:54:44.211Z,26.23
2019-04-14T16:57:29.225Z,29.75
2019-04-14T16:59:55.220Z,28.50
2019-04-14T17:02:21.313Z,29.60
2019-04-14T17:04:47.092Z,29.50
2019-04-14T17:07:13.169Z,28.30
2019-04-14T17:09:38.986Z,26.42
2019-04-14T17:12:04.795Z,33.77
2019-04-14T17:14:36.303Z,31.47
2019-04-14T17:17:24.538Z,26.77
2019-04-14T17:19:57.155Z,26.00
2019-04-14T17:22:28.145Z,33.95
2019-04-14T17:25:05.198Z,27.35
2019-04-14T17:27:33.196Z,32.58
2019-04-14T17:30:03.781Z,35.00
2019-04-14T17:32:31.468Z,23.60
2019-04-14T17:35:15.914Z,23.00
2019-04-14T17:37:43.888Z,25.72
2019-04-14T17:40:23.963Z,26.80
2019-04-14T17:42:54.185Z,30.85
2019-04-14T17:45:25.096Z,32.17
2019-04-14T17:47:52.803Z,27.65
2019-04-14T17:50:25.416Z,24.10
2019-04-14T17:52:59.327Z,34.27
2019-04-14T17:55:27.417Z,30.50
2019-04-14T17:57:55.240Z,30.95
2019-04-14T18:00:23.252Z,27.05
2019-04-14T18:03:06.079Z,31.65
2019-04-14T18:05:34.062Z,26.00
2019-04-14T18:08:02.040Z,26.65
2019-04-14T18:10:35.596Z,26.05
2019-04-14T18:13:09.362Z,24.95
2019-04-14T18:15:54.244Z,25.15
2019-04-14T18:18:24.730Z,22.07
2019-04-14T18:20:52.469Z,23.52
2019-04-14T18:23:18.289Z,24.35
2019-04-14T18:25:44.381Z,22.93
2019-04-14T18:28:28.576Z,27.00
2019-04-14T18:31:05.241Z,20.77
2019-04-14T18:33:35.846Z,28.45
2019-04-14T18:36:06.893Z,25.23
2019-04-14T18:38:46.982Z,19.15
2019-04-14T18:41:14.986Z,23.73
2019-04-14T18:43:58.133Z,24.40
2019-04-14T18:46:28.873Z,26.52
2019-04-14T18:49:02.235Z,20.20
2019-04-14T18:51:33.142Z,22.40
2019-04-14T18:54:00.835Z,32.17
2019-04-14T18:56:46.804Z,132.60
2019-04-14T18:59:31.511Z,32.03
2019-04-14T19:01:57.362Z,25.95
2019-04-14T19:04:23.191Z,18.87
2019-04-14T19:06:49.233Z,21.33
2019-04-14T19:09:15.088Z,18.35
2019-04-14T19:11:42.813Z,28.17
2019-04-14T19:14:10.562Z,26.45
2019-04-14T19:16:40.019Z,28.07
2019-04-14T19:19:07.688Z,23.85
2019-04-14T19:21:33.522Z,27.00
2019-04-14T19:23:59.603Z,18.80
2019-04-14T19:26:25.480Z,21.87
2019-04-14T19:28:51.293Z,22.40
2019-04-14T19:31:17.082Z,26.30
2019-04-14T19:33:42.903Z,25.17
2019-04-14T19:36:08.703Z,22.87
2019-04-14T19:38:34.517Z,23.60
2019-04-14T19:41:00.579Z,22.10
2019-04-14T19:43:26.401Z,26.80
2019-04-14T19:45:52.489Z,19.03
2019-04-14T19:48:18.535Z,23.70
2019-04-14T19:50:44.351Z,22.42
2019-04-14T19:53:10.230Z,21.33
2019-04-14T19:55:37.355Z,22.10
2019-04-14T19:58:03.387Z,19.65
2019-04-14T20:00:29.245Z,27.40
2019-04-14T20:02:55.114Z,24.50
2019-04-14T20:05:20.909Z,22.10
2019-04-14T20:07:46.803Z,19.87
2019-04-14T20:10:13.110Z,20.83
2019-04-14T20:12:38.921Z,24.02
2019-04-14T20:15:05.418Z,21.03
2019-04-14T20:17:50.109Z,23.38
2019-04-14T20:20:20.798Z,22.62
2019-04-14T20:22:48.577Z,24.63
2019-04-14T20:25:33.712Z,23.18
2019-04-14T20:28:03.525Z,25.48
2019-04-14T20:30:34.016Z,25.95
2019-04-14T20:33:00.050Z,34.53
2019-04-14T20:35:25.853Z,27.27
2019-04-14T20:37:51.742Z,21.87
2019-04-14T20:40:17.676Z,23.37
2019-04-14T20:42:43.739Z,20.80
2019-04-14T20:45:11.763Z,21.25
2019-04-14T20:47:37.856Z,26.52
2019-04-14T20:50:05.647Z,22.07
2019-04-14T20:52:31.457Z,23.83
2019-04-14T20:54:57.528Z,25.00
2019-04-14T20:57:23.476Z,27.22
2019-04-14T20:59:49.563Z,23.37
2019-04-14T21:02:29.449Z,24.60
2019-04-14T21:04:57.166Z,22.67
2019-04-14T21:07:24.884Z,18.25
2019-04-14T21:09:55.343Z,20.52
2019-04-14T21:12:29.052Z,18.48
2019-04-14T21:15:05.838Z,20.25
2019-04-14T21:17:42.093Z,20.90
2019-04-14T21:20:10.272Z,22.00
2019-04-14T21:22:44.636Z,18.25
2019-04-14T21:25:18.512Z,17.05
2019-04-14T21:27:58.451Z,26.90
2019-04-14T21:30:26.153Z,22.50
2019-04-14T21:33:02.748Z,22.20
2019-04-14T21:35:42.658Z,22.55
2019-04-14T21:38:26.893Z,27.17
2019-04-14T21:41:00.648Z,40.05
2019-04-14T21:43:26.445Z,29.45
2019-04-14T21:45:52.524Z,24.33
2019-04-14T21:48:18.547Z,21.20
2019-04-14T21:50:45.258Z,19.98
2019-04-14T21:53:11.375Z,21.80
2019-04-14T21:55:37.406Z,18.90
2019-04-14T21:58:21.842Z,21.35
2019-04-14T22:01:05.101Z,18.77
2019-04-14T22:03:51.295Z,22.93
2019-04-14T22:06:34.113Z,24.75
2019-04-14T22:08:59.943Z,21.48
2019-04-14T22:11:27.733Z,24.20
2019-04-14T22:13:53.904Z,20.17
2019-04-14T22:16:22.716Z,20.45
2019-04-14T22:18:48.823Z,24.37
2019-04-14T22:21:17.799Z,28.25
2019-04-14T22:23:43.902Z,21.80
2019-04-14T22:26:09.705Z,29.45
2019-04-14T22:28:35.846Z,24.33
2019-04-14T22:31:03.912Z,22.15
2019-04-14T22:33:29.737Z,21.97
2019-04-14T22:35:58.741Z,23.50
2019-04-14T22:38:24.536Z,20.05
2019-04-14T22:40:53.934Z,21.57
2019-04-14T22:43:19.861Z,23.67
2019-04-14T22:45:45.662Z,21.43
2019-04-14T22:48:11.486Z,25.47
2019-04-14T22:50:37.580Z,23.20
2019-04-14T22:53:06.199Z,21.20
2019-04-14T22:55:32.094Z,22.40
2019-04-14T22:58:00.954Z,23.57
2019-04-14T23:00:40.947Z,25.08
2019-04-14T23:03:11.228Z,19.17
2019-04-14T23:05:51.229Z,19.45
2019-04-14T23:08:21.742Z,21.97
2019-04-14T23:11:06.701Z,20.45
2019-04-14T23:13:51.415Z,18.30
2019-04-14T23:16:23.221Z,18.32
2019-04-14T23:18:56.581Z,16.17
2019-04-14T23:21:30.312Z,17.90
2019-04-14T23:24:07.546Z,22.22
2019-04-14T23:26:33.357Z,24.60
2019-04-14T23:28:59.185Z,15.87
2019-04-14T23:31:24.982Z,23.33
2019-04-14T23:33:50.794Z,19.67
2019-04-14T23:36:16.591Z,16.97
2019-04-14T23:38:42.408Z,16.83
2019-04-14T23:41:08.232Z,17.13
2019-04-14T23:43:34.270Z,19.07
2019-04-14T23:46:00.473Z,17.07
2019-04-14T23:48:26.539Z,16.20
2019-04-14T23:50:52.365Z,20.08
2019-04-14T23:53:18.458Z,18.20
2019-04-14T23:55:44.284Z,15.00
2019-04-14T23:58:10.125Z,20.30
